createdAt,value
2018-10-01T00:01:38.286Z,44.73
2018-10-01T00:04:09.562Z,44.84
2018-10-01T00:06:40.709Z,45.42
2018-10-01T00:09:11.920Z,45.61
2018-10-01T00:11:43.559Z,46.82
2018-10-01T00:14:14.828Z,46.74
2018-10-01T00:16:46.048Z,47.37
2018-10-01T00:19:22.751Z,47.37
2018-10-01T00:21:58.804Z,47.73
2018-10-01T00:24:30.245Z,47.74
2018-10-01T00:27:01.634Z,48.05
2018-10-01T00:29:32.817Z,47.82
2018-10-01T00:32:04.036Z,47.54
2018-10-01T00:34:35.247Z,47.16
2018-10-01T00:37:06.751Z,48.18
2018-10-01T00:39:38.303Z,48.38
2018-10-01T00:44:34.410Z,48.32
2018-10-01T00:47:05.637Z,48.59
2018-10-01T00:49:36.771Z,48.36
2018-10-01T00:52:08.027Z,47.84
2018-10-01T00:54:38.931Z,48.25
2018-10-01T00:57:10.590Z,48.74
2018-10-01T00:59:41.748Z,48.07
2018-10-01T01:02:13.437Z,47.60
2018-10-01T01:04:44.668Z,47.95
2018-10-01T01:07:15.762Z,48.71
2018-10-01T01:09:46.821Z,47.71
2018-10-01T01:12:18.262Z,47.77
2018-10-01T01:14:48.608Z,48.48
2018-10-01T01:17:19.770Z,48.15
2018-10-01T01:19:51.026Z,47.82
2018-10-01T01:22:22.576Z,47.50
2018-10-01T01:24:53.736Z,47.87
2018-10-01T01:27:24.915Z,48.25
2018-10-01T01:29:56.026Z,48.13
2018-10-01T01:32:27.665Z,48.54
2018-10-01T01:34:59.034Z,48.33
2018-10-01T01:37:30.635Z,47.92
2018-10-01T01:40:01.895Z,49.04
2018-10-01T01:42:33.584Z,48.03
2018-10-01T01:45:04.714Z,48.07
2018-10-01T01:47:35.669Z,47.97
2018-10-01T01:50:07.036Z,48.29
2018-10-01T01:52:38.612Z,49.09
2018-10-01T01:55:09.822Z,48.97
2018-10-01T01:57:41.241Z,49.01
2018-10-01T02:00:12.679Z,49.17
2018-10-01T02:02:43.796Z,49.26
2018-10-01T02:05:14.893Z,49.09
2018-10-01T02:07:46.287Z,48.66
2018-10-01T02:10:17.580Z,48.61
2018-10-01T02:12:47.646Z,48.86
2018-10-01T02:15:18.684Z,48.84
2018-10-01T02:17:49.896Z,48.88
2018-10-01T02:20:21.274Z,49.08
2018-10-01T02:22:52.715Z,48.90
2018-10-01T02:25:23.927Z,49.06
2018-10-01T02:27:55.551Z,48.90
2018-10-01T02:30:26.695Z,49.09
2018-10-01T02:32:57.895Z,49.04
2018-10-01T02:35:29.031Z,49.27
2018-10-01T02:38:00.522Z,49.42
2018-10-01T02:40:31.831Z,49.70
2018-10-01T02:43:03.267Z,49.47
2018-10-01T02:45:33.532Z,49.43
2018-10-01T02:48:04.667Z,49.39
2018-10-01T02:50:36.029Z,49.61
2018-10-01T02:53:12.426Z,49.63
2018-10-01T02:55:43.694Z,49.88
2018-10-01T02:58:14.802Z,49.61
2018-10-01T03:00:45.668Z,49.61
2018-10-01T03:03:16.790Z,49.83
2018-10-01T03:05:48.053Z,50.12
2018-10-01T03:08:19.666Z,50.07
2018-10-01T03:10:50.787Z,49.85
2018-10-01T03:13:21.822Z,49.05
2018-10-01T03:15:53.619Z,49.88
2018-10-01T03:18:25.018Z,50.55
2018-10-01T03:20:56.385Z,50.74
2018-10-01T03:23:27.650Z,50.65
2018-10-01T03:25:58.924Z,51.09
2018-10-01T03:28:29.900Z,51.12
2018-10-01T03:31:01.255Z,51.51
2018-10-01T03:33:32.563Z,51.72
2018-10-01T03:36:03.738Z,51.78
2018-10-01T03:38:34.814Z,51.26
2018-10-01T03:41:06.278Z,51.88
2018-10-01T03:43:37.550Z,51.57
2018-10-01T03:46:08.801Z,51.54
2018-10-01T03:48:40.395Z,51.54
2018-10-01T03:51:11.626Z,50.35
2018-10-01T03:53:42.796Z,49.64
2018-10-01T03:56:14.261Z,49.74
2018-10-01T03:58:45.542Z,49.73
2018-10-01T04:01:16.748Z,49.24
2018-10-01T04:03:47.810Z,49.02
2018-10-01T04:06:19.290Z,49.74
2018-10-01T04:08:50.731Z,51.17
2018-10-01T04:11:22.245Z,50.74
2018-10-01T04:13:53.596Z,49.81
2018-10-01T04:16:25.806Z,49.69
2018-10-01T04:18:57.329Z,50.06
2018-10-01T04:21:27.554Z,50.21
2018-10-01T04:23:58.657Z,50.75
2018-10-01T04:26:29.692Z,50.73
2018-10-01T04:29:00.816Z,50.79
2018-10-01T04:31:32.253Z,50.45
2018-10-01T04:36:06.911Z,51.26
2018-10-01T04:38:38.576Z,51.52
2018-10-01T04:41:10.564Z,50.44
2018-10-01T04:43:42.267Z,49.95
2018-10-01T04:46:13.782Z,50.17
2018-10-01T04:48:44.817Z,50.25
2018-10-01T04:51:16.245Z,49.86
2018-10-01T04:53:47.690Z,50.17
2018-10-01T04:56:18.753Z,49.55
2018-10-01T04:58:49.814Z,49.44
2018-10-01T05:01:21.357Z,49.45
2018-10-01T05:03:51.565Z,49.68
2018-10-01T05:06:22.706Z,49.56
2018-10-01T05:08:53.672Z,49.89
2018-10-01T05:11:25.372Z,49.83
2018-10-01T05:13:56.906Z,49.69
2018-10-01T05:16:28.956Z,49.94
2018-10-01T05:19:00.675Z,50.72
2018-10-01T05:21:30.642Z,50.80
2018-10-01T05:24:02.383Z,51.03
2018-10-01T05:26:34.028Z,50.72
2018-10-01T05:29:05.787Z,50.84
2018-10-01T05:31:37.564Z,50.81
2018-10-01T05:34:09.032Z,51.00
2018-10-01T05:36:40.635Z,50.78
2018-10-01T05:39:13.606Z,50.72
2018-10-01T05:41:45.637Z,50.64
2018-10-01T05:44:17.042Z,49.74
2018-10-01T05:46:48.708Z,49.43
2018-10-01T05:49:20.397Z,49.26
2018-10-01T05:51:51.904Z,49.46
2018-10-01T05:54:23.784Z,49.25
2018-10-01T05:56:55.659Z,49.09
2018-10-01T05:59:25.583Z,48.83
2018-10-01T06:01:57.026Z,48.57
2018-10-01T06:04:28.694Z,49.33
2018-10-01T06:07:00.373Z,49.47
2018-10-01T06:09:30.952Z,49.01
2018-10-01T06:12:02.046Z,49.03
2018-10-01T06:14:33.721Z,49.11
2018-10-01T06:17:05.359Z,49.18
2018-10-01T06:19:35.799Z,49.29
2018-10-01T06:22:07.553Z,49.70
2018-10-01T06:24:38.278Z,49.46
2018-10-01T06:27:09.819Z,49.55
2018-10-01T06:29:41.831Z,49.83
2018-10-01T06:32:13.035Z,50.27
2018-10-01T06:34:44.756Z,50.36
2018-10-01T06:37:15.831Z,50.36
2018-10-01T06:39:47.662Z,50.38
2018-10-01T06:42:17.934Z,50.26
2018-10-01T06:44:49.677Z,50.13
2018-10-01T06:47:20.654Z,48.94
2018-10-01T06:49:52.031Z,48.99
2018-10-01T06:52:23.633Z,49.04
2018-10-01T06:54:55.026Z,48.07
2018-10-01T06:57:26.668Z,47.20
2018-10-01T06:59:58.033Z,46.43
2018-10-01T07:02:29.661Z,45.56
2018-10-01T07:05:01.434Z,45.14
2018-10-01T07:07:32.895Z,45.22
2018-10-01T07:10:04.629Z,44.92
2018-10-01T07:12:35.900Z,45.07
2018-10-01T07:15:07.788Z,45.75
2018-10-01T07:17:39.387Z,44.56
2018-10-01T07:20:09.731Z,42.21
2018-10-01T07:22:41.079Z,40.64
2018-10-01T07:25:12.904Z,38.98
2018-10-01T07:27:44.363Z,38.26
2018-10-01T07:30:15.676Z,39.13
2018-10-01T07:32:47.375Z,39.49
2018-10-01T07:35:18.791Z,39.52
2018-10-01T07:37:50.397Z,39.30
2018-10-01T07:40:21.768Z,39.36
2018-10-01T07:42:53.371Z,39.12
2018-10-01T07:45:24.840Z,39.47
2018-10-01T07:47:56.800Z,40.09
2018-10-01T07:50:28.383Z,40.15
2018-10-01T07:52:59.725Z,39.98
2018-10-01T07:55:31.376Z,39.58
2018-10-01T07:58:02.763Z,39.35
2018-10-01T08:00:35.031Z,38.67
2018-10-01T08:03:06.628Z,37.54
2018-10-01T08:05:38.019Z,36.56
2018-10-01T08:08:09.682Z,37.57
2018-10-01T08:10:41.708Z,37.32
2018-10-01T08:13:13.362Z,37.77
2018-10-01T08:15:44.797Z,38.50
2018-10-01T08:18:16.723Z,38.97
2018-10-01T08:20:48.376Z,39.70
2018-10-01T08:23:19.831Z,40.30
2018-10-01T08:25:51.672Z,40.73
2018-10-01T08:28:23.380Z,40.73
2018-10-01T08:30:55.031Z,38.98
2018-10-01T08:33:26.664Z,38.45
2018-10-01T08:35:58.047Z,38.04
2018-10-01T08:38:29.756Z,38.17
2018-10-01T08:41:01.834Z,38.51
2018-10-01T08:43:33.706Z,38.12
2018-10-01T08:46:05.662Z,37.71
2018-10-01T08:48:39.042Z,38.25
2018-10-01T08:51:22.266Z,38.91
2018-10-01T08:53:58.777Z,38.95
2018-10-01T08:56:30.605Z,38.35
2018-10-01T08:59:02.606Z,37.95
2018-10-01T09:01:34.356Z,38.51
2018-10-01T09:04:06.047Z,38.80
2018-10-01T09:06:37.703Z,38.99
2018-10-01T09:09:11.680Z,39.40
2018-10-01T09:11:43.583Z,40.29
2018-10-01T09:14:14.947Z,39.98
2018-10-01T09:16:46.700Z,39.31
2018-10-01T09:19:18.480Z,38.87
2018-10-01T09:21:49.907Z,39.40
2018-10-01T09:24:21.775Z,40.04
2018-10-01T09:26:53.531Z,39.93
2018-10-01T09:29:25.089Z,39.87
2018-10-01T09:31:56.711Z,39.15
2018-10-01T09:34:28.064Z,39.55
2018-10-01T09:36:59.773Z,39.58
2018-10-01T09:39:31.394Z,38.90
2018-10-01T09:42:03.049Z,38.63
2018-10-01T09:44:34.846Z,37.83
2018-10-01T09:47:06.754Z,37.82
2018-10-01T09:49:38.589Z,37.89
2018-10-01T09:52:09.869Z,37.58
2018-10-01T09:54:41.769Z,38.17
2018-10-01T09:57:13.602Z,38.20
2018-10-01T09:59:44.845Z,38.68
2018-10-01T10:02:16.637Z,38.73
2018-10-01T10:04:48.410Z,38.94
2018-10-01T10:07:20.048Z,39.44
2018-10-01T10:09:51.669Z,39.80
2018-10-01T10:12:23.044Z,39.78
2018-10-01T10:14:54.659Z,39.27
2018-10-01T10:17:25.952Z,39.16
2018-10-01T10:19:57.688Z,39.70
2018-10-01T10:22:29.402Z,39.81
2018-10-01T10:25:00.780Z,40.25
2018-10-01T10:27:32.407Z,40.25
2018-10-01T10:30:03.901Z,41.13
2018-10-01T10:32:35.532Z,40.78
2018-10-01T10:35:07.584Z,40.44
2018-10-01T10:37:39.048Z,40.61
2018-10-01T10:40:10.687Z,40.75
2018-10-01T10:42:42.645Z,40.96
2018-10-01T10:45:14.038Z,40.07
2018-10-01T10:47:45.523Z,40.52
2018-10-01T10:50:17.056Z,42.19
2018-10-01T10:52:48.650Z,41.73
2018-10-01T10:55:19.843Z,41.96
2018-10-01T10:57:51.392Z,42.75
2018-10-01T11:00:23.704Z,42.44
2018-10-01T11:02:56.394Z,42.23
2018-10-01T11:05:27.861Z,42.39
2018-10-01T11:07:59.682Z,42.90
2018-10-01T11:10:31.043Z,43.63
2018-10-01T11:13:02.676Z,43.03
2018-10-01T11:15:34.046Z,43.48
2018-10-01T11:18:05.758Z,42.87
2018-10-01T11:20:37.688Z,42.45
2018-10-01T11:23:09.665Z,41.96
2018-10-01T11:25:41.373Z,42.19
2018-10-01T11:28:11.851Z,42.23
2018-10-01T11:30:43.683Z,42.11
2018-10-01T11:33:15.126Z,43.14
2018-10-01T11:35:46.724Z,43.91
2018-10-01T11:38:18.073Z,44.82
2018-10-01T11:40:50.735Z,45.22
2018-10-01T11:43:22.039Z,45.79
2018-10-01T11:45:53.654Z,45.54
2018-10-01T11:48:25.563Z,45.03
2018-10-01T11:50:57.046Z,44.84
2018-10-01T11:53:28.772Z,44.43
2018-10-01T11:56:00.491Z,43.63
2018-10-01T11:58:31.926Z,42.68
2018-10-01T12:01:03.515Z,42.82
2018-10-01T12:03:34.969Z,43.21
2018-10-01T12:06:06.388Z,41.23
2018-10-01T12:08:37.759Z,40.97
2018-10-01T12:11:08.816Z,42.31
2018-10-01T12:13:40.685Z,42.96
2018-10-01T12:16:12.588Z,42.70
2018-10-01T12:18:44.042Z,43.01
2018-10-01T12:21:15.801Z,43.74
2018-10-01T12:23:47.673Z,43.62
2018-10-01T12:26:18.921Z,44.24
2018-10-01T12:28:50.700Z,43.88
2018-10-01T12:31:22.389Z,44.09
2018-10-01T12:33:54.545Z,44.53
2018-10-01T12:36:26.020Z,45.99
2018-10-01T12:38:57.699Z,45.49
2018-10-01T12:41:29.076Z,45.28
2018-10-01T12:44:00.712Z,45.39
2018-10-01T12:46:32.371Z,45.07
2018-10-01T12:49:04.029Z,45.99
2018-10-01T12:51:35.757Z,46.36
2018-10-01T12:54:07.389Z,46.42
2018-10-01T12:56:39.029Z,47.38
2018-10-01T12:59:10.661Z,46.73
2018-10-01T13:01:42.392Z,47.69
2018-10-01T13:04:13.932Z,48.24
2018-10-01T13:06:45.759Z,49.05
2018-10-01T13:09:17.370Z,49.47
2018-10-01T13:11:48.697Z,49.94
2018-10-01T13:14:19.813Z,50.11
2018-10-01T13:16:51.687Z,50.45
2018-10-01T13:19:23.038Z,50.47
2018-10-01T13:21:54.708Z,49.77
2018-10-01T13:24:26.717Z,49.47
2018-10-01T13:26:58.694Z,50.25
2018-10-01T13:29:30.697Z,51.59
2018-10-01T13:32:02.518Z,51.39
2018-10-01T13:34:34.239Z,52.31
2018-10-01T13:37:05.714Z,52.48
2018-10-01T13:39:37.038Z,53.04
2018-10-01T13:42:10.813Z,53.49
2018-10-01T13:44:42.756Z,53.53
2018-10-01T13:47:14.428Z,54.17
2018-10-01T13:49:45.849Z,54.50
2018-10-01T13:52:17.666Z,54.52
2018-10-01T13:54:49.423Z,55.17
2018-10-01T13:57:20.920Z,55.72
2018-10-01T13:59:52.540Z,55.56
2018-10-01T14:02:23.829Z,55.71
2018-10-01T14:04:55.687Z,56.50
2018-10-01T14:07:27.389Z,58.78
2018-10-01T14:09:59.384Z,60.30
2018-10-01T14:12:30.645Z,61.71
2018-10-01T14:15:02.423Z,63.09
2018-10-01T14:17:33.906Z,63.00
2018-10-01T14:20:05.768Z,63.37
2018-10-01T14:22:37.642Z,63.95
2018-10-01T14:25:09.662Z,64.18
2018-10-01T14:27:41.627Z,64.58
2018-10-01T14:30:13.442Z,64.70
2018-10-01T14:32:43.824Z,64.68
2018-10-01T14:35:15.675Z,65.03
2018-10-01T14:37:47.390Z,65.36
2018-10-01T14:40:19.040Z,65.13
2018-10-01T14:42:50.694Z,65.08
2018-10-01T14:45:22.685Z,65.35
2018-10-01T14:47:54.417Z,64.98
2018-10-01T14:50:25.800Z,64.91
2018-10-01T14:52:57.670Z,65.17
2018-10-01T14:55:29.624Z,65.16
2018-10-01T14:58:01.361Z,64.82
2018-10-01T15:00:33.907Z,64.59
2018-10-01T15:03:05.281Z,64.62
2018-10-01T15:05:36.674Z,64.74
2018-10-01T15:08:08.776Z,64.94
2018-10-01T15:11:32.912Z,65.01
2018-10-01T15:14:04.659Z,64.42
2018-10-01T15:16:36.277Z,63.28
2018-10-01T15:19:06.592Z,63.22
2018-10-01T15:21:36.667Z,63.32
2018-10-01T15:24:06.672Z,63.42
2018-10-01T15:26:38.380Z,63.68
2018-10-01T15:29:09.726Z,64.20
2018-10-01T15:31:40.923Z,63.84
2018-10-01T15:34:12.595Z,63.87
2018-10-01T15:36:43.710Z,63.79
2018-10-01T15:39:15.403Z,63.56
2018-10-01T15:41:46.700Z,64.44
2018-10-01T15:44:18.054Z,64.40
2018-10-01T15:46:49.612Z,64.78
2018-10-01T15:49:20.661Z,65.34
2018-10-01T15:51:52.026Z,65.67
2018-10-01T15:54:23.564Z,65.57
2018-10-01T15:56:53.567Z,65.83
2018-10-01T15:59:23.544Z,65.72
2018-10-01T16:01:53.590Z,65.84
2018-10-01T16:04:24.705Z,66.70
2018-10-01T16:06:56.666Z,66.94
2018-10-01T16:11:58.806Z,66.93
2018-10-01T16:14:28.803Z,66.97
2018-10-01T16:17:00.234Z,66.82
2018-10-01T16:19:31.594Z,66.70
2018-10-01T16:22:02.983Z,66.59
2018-10-01T16:24:33.891Z,67.09
2018-10-01T16:27:06.406Z,66.58
2018-10-01T16:29:36.532Z,66.31
2018-10-01T16:32:07.743Z,66.13
2018-10-01T16:34:38.812Z,65.45
2018-10-01T16:37:09.908Z,65.97
2018-10-01T16:39:40.905Z,66.20
2018-10-01T16:42:12.481Z,65.80
2018-10-01T16:44:43.821Z,65.70
2018-10-01T16:47:15.285Z,66.04
2018-10-01T16:49:46.545Z,66.19
2018-10-01T16:52:17.782Z,65.89
2018-10-01T16:54:49.555Z,65.91
2018-10-01T16:57:21.416Z,66.61
2018-10-01T16:59:52.641Z,66.32
2018-10-01T17:02:23.825Z,66.28
2018-10-01T17:04:55.041Z,66.06
2018-10-01T17:07:26.768Z,66.03
2018-10-01T17:09:58.027Z,66.53
2018-10-01T17:12:29.594Z,66.46
2018-10-01T17:15:00.727Z,66.81
2018-10-01T17:17:32.057Z,66.82
2018-10-01T17:20:03.610Z,66.82
2018-10-01T17:22:34.783Z,67.02
2018-10-01T17:25:06.774Z,67.14
2018-10-01T17:27:38.036Z,67.40
2018-10-01T17:30:09.731Z,66.78
2018-10-01T17:32:41.025Z,67.24
2018-10-01T17:35:12.709Z,67.44
2018-10-01T17:37:43.923Z,68.00
2018-10-01T17:40:15.624Z,67.97
2018-10-01T17:42:45.955Z,68.02
2018-10-01T17:45:17.588Z,68.22
2018-10-01T17:47:49.411Z,68.79
2018-10-01T17:50:20.642Z,68.60
2018-10-01T17:55:27.386Z,68.27
2018-10-01T17:57:58.614Z,68.45
2018-10-01T18:00:41.741Z,68.71
2018-10-01T18:03:13.456Z,68.63
2018-10-01T18:05:44.699Z,68.84
2018-10-01T18:08:16.376Z,69.14
2018-10-01T18:10:47.663Z,69.45
2018-10-01T18:13:19.434Z,68.88
2018-10-01T18:15:50.670Z,68.60
2018-10-01T18:18:21.822Z,67.52
2018-10-01T18:20:53.531Z,67.00
2018-10-01T18:23:24.672Z,67.41
2018-10-01T18:25:55.808Z,66.26
2018-10-01T18:28:26.702Z,64.85
2018-10-01T18:30:57.817Z,64.59
2018-10-01T18:36:12.346Z,62.12
2018-10-01T18:40:51.631Z,61.24
2018-10-01T18:43:19.993Z,60.82
2018-10-01T18:45:48.705Z,60.80
2018-10-01T18:51:02.310Z,60.64
2018-10-01T18:53:32.298Z,60.84
2018-10-01T18:56:00.710Z,60.70
2018-10-01T18:58:30.310Z,60.78
2018-10-01T19:00:59.020Z,61.08
2018-10-01T19:03:28.448Z,60.97
2018-10-01T19:05:58.335Z,60.87
2018-10-01T19:08:28.184Z,61.04
2018-10-01T19:10:57.792Z,61.06
2018-10-01T19:13:27.323Z,61.04
2018-10-01T19:15:57.007Z,61.26
2018-10-01T19:18:26.395Z,61.08
2018-10-01T19:20:56.209Z,61.04
2018-10-01T19:23:25.786Z,61.39
2018-10-01T19:25:55.383Z,61.07
2018-10-01T19:28:25.288Z,61.54
2018-10-01T19:30:54.002Z,61.66
2018-10-01T19:33:23.727Z,61.84
2018-10-01T19:35:53.539Z,61.64
2018-10-01T19:38:23.443Z,61.63
2018-10-01T19:40:53.892Z,61.84
2018-10-01T19:43:24.914Z,61.82
2018-10-01T19:45:54.792Z,61.57
2018-10-01T19:48:26.200Z,61.55
2018-10-01T19:50:57.550Z,61.61
2018-10-01T19:53:27.404Z,61.53
2018-10-01T19:55:57.228Z,61.41
2018-10-01T19:58:27.353Z,61.44
2018-10-01T20:00:57.339Z,61.29
2018-10-01T20:03:27.292Z,61.29
2018-10-01T20:05:57.261Z,62.01
2018-10-01T20:08:27.174Z,62.01
2018-10-01T20:10:58.495Z,62.31
2018-10-01T20:13:29.155Z,62.63
2018-10-01T20:15:59.381Z,62.83
2018-10-01T20:18:29.285Z,62.88
2018-10-01T20:20:58.143Z,63.06
2018-10-01T20:23:29.060Z,63.13
2018-10-01T20:25:58.869Z,63.67
2018-10-01T20:28:28.982Z,63.71
2018-10-01T20:30:58.372Z,63.71
2018-10-01T20:33:28.553Z,63.51
2018-10-01T20:35:58.800Z,63.66
2018-10-01T20:38:29.230Z,63.97
2018-10-01T20:40:59.489Z,63.74
2018-10-01T20:43:29.408Z,63.82
2018-10-01T20:45:59.455Z,63.65
2018-10-01T20:48:29.559Z,63.78
2018-10-01T20:50:59.302Z,63.96
2018-10-01T20:53:27.730Z,64.43
2018-10-01T20:55:58.720Z,64.80
2018-10-01T20:58:29.190Z,64.60
2018-10-01T21:00:59.270Z,64.49
2018-10-01T21:03:27.907Z,64.71
2018-10-01T21:05:57.603Z,64.58
2018-10-01T21:08:27.572Z,64.63
2018-10-01T21:10:57.383Z,64.67
2018-10-01T21:13:27.211Z,64.93
2018-10-01T21:15:57.418Z,64.46
2018-10-01T21:18:28.216Z,64.62
2018-10-01T21:20:59.426Z,64.45
2018-10-01T21:23:29.358Z,64.27
2018-10-01T21:25:59.287Z,64.17
2018-10-01T21:28:27.585Z,63.87
2018-10-01T21:30:57.318Z,64.27
2018-10-01T21:33:27.446Z,64.31
2018-10-01T21:35:57.193Z,64.21
2018-10-01T21:38:27.481Z,63.95
2018-10-01T21:40:57.944Z,64.09
2018-10-01T21:43:27.841Z,63.35
2018-10-01T21:45:57.446Z,63.91
2018-10-01T21:48:27.459Z,63.69
2018-10-01T21:50:57.430Z,63.62
2018-10-01T21:53:27.498Z,63.57
2018-10-01T21:55:57.297Z,63.84
2018-10-01T21:58:26.012Z,63.31
2018-10-01T22:01:01.083Z,62.85
2018-10-01T22:03:30.661Z,63.13
2018-10-01T22:06:00.244Z,62.76
2018-10-01T22:08:29.794Z,63.15
2018-10-01T22:10:59.329Z,62.47
2018-10-01T22:13:29.175Z,62.54
2018-10-01T22:15:58.686Z,62.34
2018-10-01T22:18:28.258Z,62.13
2018-10-01T22:20:58.300Z,62.01
2018-10-01T22:23:26.722Z,61.97
2018-10-01T22:25:57.308Z,61.64
2018-10-01T22:28:25.996Z,61.75
2018-10-01T22:30:55.581Z,61.53
2018-10-01T22:33:25.314Z,61.51
2018-10-01T22:35:55.213Z,61.61
2018-10-01T22:38:24.989Z,61.67
2018-10-01T22:40:54.472Z,61.44
2018-10-01T22:43:24.200Z,61.50
2018-10-01T22:45:54.409Z,61.53
2018-10-01T22:48:24.314Z,61.67
2018-10-01T22:50:52.703Z,61.50
2018-10-01T22:53:22.397Z,61.37
2018-10-01T22:55:52.180Z,60.79
2018-10-01T22:58:21.631Z,60.84
2018-10-01T23:00:51.321Z,60.85
2018-10-01T23:03:21.197Z,60.50
2018-10-01T23:05:50.641Z,60.64
2018-10-01T23:08:20.264Z,60.30
2018-10-01T23:10:48.443Z,60.46
2018-10-01T23:13:18.174Z,60.65
2018-10-01T23:15:48.004Z,61.02
2018-10-01T23:18:17.369Z,60.50
2018-10-01T23:20:47.211Z,61.04
2018-10-01T23:23:16.450Z,61.41
2018-10-01T23:25:46.181Z,61.59
2018-10-01T23:28:15.595Z,61.57
2018-10-01T23:30:45.262Z,61.55
2018-10-01T23:33:15.190Z,62.25
2018-10-01T23:35:44.992Z,61.96
2018-10-01T23:38:14.493Z,62.17
2018-10-01T23:40:44.324Z,62.48
2018-10-01T23:43:13.996Z,61.88
2018-10-01T23:45:43.375Z,61.43
2018-10-01T23:48:13.198Z,61.32
2018-10-01T23:50:42.785Z,61.46
2018-10-01T23:53:12.295Z,61.49
2018-10-01T23:55:41.369Z,61.48
2018-10-01T23:58:11.188Z,61.97
